sensor_id;sensor_type;location;lat;lon;timestamp;pressure;altitude;pressure_sealevel;temperature;humidity
43364;BME280;40636;52.424;-1.948;2023-01-04T00:01:54;99191.31;;;11.14;100.00
43364;BME280;40636;52.424;-1.948;2023-01-04T00:04:21;99173.72;;;11.15;100.00
43364;BME280;40636;52.424;-1.948;2023-01-04T00:06:47;99184.44;;;11.17;100.00
43364;BME280;40636;52.424;-1.948;2023-01-04T00:09:14;99189.09;;;11.16;100.00
43364;BME280;40636;52.424;-1.948;2023-01-04T00:11:41;99184.72;;;11.15;100.00
43364;BME280;40636;52.424;-1.948;2023-01-04T00:14:09;99191.31;;;11.14;100.00
43364;BME280;40636;52.424;-1.948;2023-01-04T00:16:36;99183.59;;;11.16;100.00
43364;BME280;40636;52.424;-1.948;2023-01-04T00:19:03;99196.25;;;11.17;100.00
43364;BME280;40636;52.424;-1.948;2023-01-04T00:21:30;99211.06;;;11.16;100.00
43364;BME280;40636;52.424;-1.948;2023-01-04T00:23:59;99198.44;;;11.15;100.00
43364;BME280;40636;52.424;-1.948;2023-01-04T00:26:31;99189.09;;;11.16;100.00
43364;BME280;40636;52.424;-1.948;2023-01-04T00:29:03;99198.16;;;11.17;100.00
43364;BME280;40636;52.424;-1.948;2023-01-04T00:31:32;99204.50;;;11.17;100.00
43364;BME280;40636;52.424;-1.948;2023-01-04T00:34:01;99222.63;;;11.18;100.00
43364;BME280;40636;52.424;-1.948;2023-01-04T00:36:28;99220.69;;;11.19;100.00
43364;BME280;40636;52.424;-1.948;2023-01-04T00:38:57;99220.97;;;11.17;100.00
43364;BME280;40636;52.424;-1.948;2023-01-04T00:44:26;99196.81;;;11.14;100.00
43364;BME280;40636;52.424;-1.948;2023-01-04T00:46:52;99192.41;;;11.13;100.00
43364;BME280;40636;52.424;-1.948;2023-01-04T00:49:19;99173.44;;;11.12;100.00
43364;BME280;40636;52.424;-1.948;2023-01-04T00:51:46;99188.56;;;11.09;100.00
43364;BME280;40636;52.424;-1.948;2023-01-04T00:54:14;99192.94;;;11.10;100.00
43364;BME280;40636;52.424;-1.948;2023-01-04T00:56:41;99199.53;;;11.09;100.00
43364;BME280;40636;52.424;-1.948;2023-01-04T00:59:09;99193.47;;;11.07;100.00
43364;BME280;40636;52.424;-1.948;2023-01-04T01:01:38;99190.75;;;11.07;100.00
43364;BME280;40636;52.424;-1.948;2023-01-04T01:04:05;99196.50;;;11.06;100.00
43364;BME280;40636;52.424;-1.948;2023-01-04T01:06:32;99188.00;;;11.07;100.00
43364;BME280;40636;52.424;-1.948;2023-01-04T01:09:00;99197.34;;;11.06;100.00
43364;BME280;40636;52.424;-1.948;2023-01-04T01:11:28;99200.91;;;11.07;100.00
43364;BME280;40636;52.424;-1.948;2023-01-04T01:13:56;99200.38;;;11.05;100.00
43364;BME280;40636;52.424;-1.948;2023-01-04T01:16:24;99181.16;;;11.05;100.00
43364;BME280;40636;52.424;-1.948;2023-01-04T01:19:12;99167.66;;;11.03;100.00
43364;BME280;40636;52.424;-1.948;2023-01-04T01:21:39;99140.78;;;11.00;100.00
43364;BME280;40636;52.424;-1.948;2023-01-04T01:24:06;99142.97;;;10.98;100.00
43364;BME280;40636;52.424;-1.948;2023-01-04T01:26:34;99145.16;;;10.96;100.00
43364;BME280;40636;52.424;-1.948;2023-01-04T01:29:01;99138.03;;;10.95;100.00
43364;BME280;40636;52.424;-1.948;2023-01-04T01:31:28;99143.50;;;10.90;100.00
43364;BME280;40636;52.424;-1.948;2023-01-04T01:33:55;99144.59;;;10.89;100.00
43364;BME280;40636;52.424;-1.948;2023-01-04T01:36:24;99165.19;;;10.86;100.00
43364;BME280;40636;52.424;-1.948;2023-01-04T01:38:52;99166.25;;;10.85;100.00
43364;BME280;40636;52.424;-1.948;2023-01-04T01:41:25;99163.81;;;10.84;100.00
43364;BME280;40636;52.424;-1.948;2023-01-04T01:43:57;99177.53;;;10.84;100.00
43364;BME280;40636;52.424;-1.948;2023-01-04T01:46:37;99184.66;;;10.85;100.00
43364;BME280;40636;52.424;-1.948;2023-01-04T01:51:40;99195.38;;;10.86;100.00
43364;BME280;40636;52.424;-1.948;2023-01-04T01:54:20;99194.81;;;10.84;100.00
43364;BME280;40636;52.424;-1.948;2023-01-04T01:56:55;99188.50;;;10.84;100.00
43364;BME280;40636;52.424;-1.948;2023-01-04T01:59:24;99187.97;;;10.87;100.00
43364;BME280;40636;52.424;-1.948;2023-01-04T02:01:52;99190.72;;;10.87;100.00
43364;BME280;40636;52.424;-1.948;2023-01-04T02:04:19;99189.63;;;10.88;100.00
43364;BME280;40636;52.424;-1.948;2023-01-04T02:06:51;99194.28;;;10.87;100.00
43364;BME280;40636;52.424;-1.948;2023-01-04T02:09:20;99198.13;;;10.86;100.00
43364;BME280;40636;52.424;-1.948;2023-01-04T02:11:47;99189.06;;;10.86;100.00
43364;BME280;40636;52.424;-1.948;2023-01-04T02:14:15;99186.03;;;10.87;100.00
43364;BME280;40636;52.424;-1.948;2023-01-04T02:22:47;99179.16;;;10.90;100.00
43364;BME280;40636;52.424;-1.948;2023-01-04T02:31:17;99178.63;;;10.83;100.00
43364;BME280;40636;52.424;-1.948;2023-01-04T02:33:53;99190.16;;;10.85;100.00
43364;BME280;40636;52.424;-1.948;2023-01-04T02:36:36;99188.78;;;10.82;100.00
43364;BME280;40636;52.424;-1.948;2023-01-04T02:41:57;99190.13;;;10.80;100.00
43364;BME280;40636;52.424;-1.948;2023-01-04T02:44:41;99192.34;;;10.78;100.00
43364;BME280;40636;52.424;-1.948;2023-01-04T02:47:32;99197.00;;;10.77;100.00
43364;BME280;40636;52.424;-1.948;2023-01-04T02:50:31;99195.34;;;10.76;100.00
43364;BME280;40636;52.424;-1.948;2023-01-04T02:53:02;99195.09;;;10.78;100.00
43364;BME280;40636;52.424;-1.948;2023-01-04T03:05:14;99193.97;;;10.74;100.00
43364;BME280;40636;52.424;-1.948;2023-01-04T03:07:53;99190.13;;;10.75;100.00
43364;BME280;40636;52.424;-1.948;2023-01-04T03:10:46;99202.22;;;10.74;100.00
43364;BME280;40636;52.424;-1.948;2023-01-04T03:13:20;99196.16;;;10.72;100.00
43364;BME280;40636;52.424;-1.948;2023-01-04T03:16:00;99195.31;;;10.71;100.00
43364;BME280;40636;52.424;-1.948;2023-01-04T03:18:33;99179.97;;;10.75;100.00
43364;BME280;40636;52.424;-1.948;2023-01-04T03:21:03;99192.59;;;10.76;100.00
43364;BME280;40636;52.424;-1.948;2023-01-04T03:23:35;99183.00;;;10.79;100.00
43364;BME280;40636;52.424;-1.948;2023-01-04T03:26:24;99178.91;;;10.81;100.00
43364;BME280;40636;52.424;-1.948;2023-01-04T03:29:27;99186.56;;;10.84;100.00
43364;BME280;40636;52.424;-1.948;2023-01-04T03:32:25;99192.63;;;10.86;100.00
43364;BME280;40636;52.424;-1.948;2023-01-04T03:35:12;99173.16;;;10.88;100.00
43364;BME280;40636;52.424;-1.948;2023-01-04T03:38:03;99187.97;;;10.92;100.00
43364;BME280;40636;52.424;-1.948;2023-01-04T03:40:59;99179.22;;;10.95;100.00
43364;BME280;40636;52.424;-1.948;2023-01-04T03:44:00;99188.81;;;10.98;100.00
43364;BME280;40636;52.424;-1.948;2023-01-04T03:46:52;99189.38;;;11.00;100.00
43364;BME280;40636;52.424;-1.948;2023-01-04T03:49:46;99186.88;;;11.03;100.00
43364;BME280;40636;52.424;-1.948;2023-01-04T03:52:16;99190.19;;;11.05;100.00
43364;BME280;40636;52.424;-1.948;2023-01-04T03:54:46;99185.25;;;11.07;100.00
43364;BME280;40636;52.424;-1.948;2023-01-04T03:57:14;99193.47;;;11.07;100.00
43364;BME280;40636;52.424;-1.948;2023-01-04T03:59:49;99186.91;;;11.08;100.00
43364;BME280;40636;52.424;-1.948;2023-01-04T04:02:22;99186.09;;;11.13;100.00
43364;BME280;40636;52.424;-1.948;2023-01-04T04:04:50;99182.50;;;11.12;100.00
43364;BME280;40636;52.424;-1.948;2023-01-04T04:07:35;99184.19;;;11.13;100.00
43364;BME280;40636;52.424;-1.948;2023-01-04T04:10:20;99181.44;;;11.13;100.00
43364;BME280;40636;52.424;-1.948;2023-01-04T04:12:47;99188.28;;;11.16;100.00
43364;BME280;40636;52.424;-1.948;2023-01-04T04:15:14;99196.53;;;11.16;100.00
43364;BME280;40636;52.424;-1.948;2023-01-04T04:17:41;99189.09;;;11.16;100.00
43364;BME280;40636;52.424;-1.948;2023-01-04T04:20:10;99194.59;;;11.16;100.00
43364;BME280;40636;52.424;-1.948;2023-01-04T04:22:38;99200.91;;;11.17;100.00
43364;BME280;40636;52.424;-1.948;2023-01-04T04:25:05;99196.53;;;11.16;100.00
43364;BME280;40636;52.424;-1.948;2023-01-04T04:27:32;99190.78;;;11.17;100.00
43364;BME280;40636;52.424;-1.948;2023-01-04T04:29:58;99198.72;;;11.19;100.00
43364;BME280;40636;52.424;-1.948;2023-01-04T04:32:25;99196.25;;;11.17;100.00
43364;BME280;40636;52.424;-1.948;2023-01-04T04:34:52;99195.69;;;11.21;100.00
43364;BME280;40636;52.424;-1.948;2023-01-04T04:37:18;99205.31;;;11.23;100.00
43364;BME280;40636;52.424;-1.948;2023-01-04T04:39:45;99209.44;;;11.26;100.00
43364;BME280;40636;52.424;-1.948;2023-01-04T04:42:12;99191.88;;;11.27;100.00
43364;BME280;40636;52.424;-1.948;2023-01-04T04:44:38;99202.59;;;11.28;100.00
43364;BME280;40636;52.424;-1.948;2023-01-04T04:47:05;99197.91;;;11.29;100.00
43364;BME280;40636;52.424;-1.948;2023-01-04T04:49:32;99207.25;;;11.28;100.00
43364;BME280;40636;52.424;-1.948;2023-01-04T04:51:59;99216.31;;;11.33;100.00
43364;BME280;40636;52.424;-1.948;2023-01-04T04:54:25;99214.09;;;11.35;100.00
43364;BME280;40636;52.424;-1.948;2023-01-04T04:56:52;99209.47;;;11.36;100.00
43364;BME280;40636;52.424;-1.948;2023-01-04T04:59:19;99214.38;;;11.39;100.00
43364;BME280;40636;52.424;-1.948;2023-01-04T05:01:46;99215.50;;;11.43;100.00
43364;BME280;40636;52.424;-1.948;2023-01-04T05:04:13;99207.25;;;11.48;100.00
43364;BME280;40636;52.424;-1.948;2023-01-04T05:06:43;99212.19;;;11.51;100.00
43364;BME280;40636;52.424;-1.948;2023-01-04T05:09:10;99217.69;;;11.51;100.00
43364;BME280;40636;52.424;-1.948;2023-01-04T05:11:37;99210.28;;;11.52;100.00
43364;BME280;40636;52.424;-1.948;2023-01-04T05:14:22;99225.13;;;11.51;100.00
43364;BME280;40636;52.424;-1.948;2023-01-04T05:16:49;99218.81;;;11.50;100.00
43364;BME280;40636;52.424;-1.948;2023-01-04T05:19:16;99212.19;;;11.51;100.00
43364;BME280;40636;52.424;-1.948;2023-01-04T05:21:43;99213.84;;;11.52;100.00
43364;BME280;40636;52.424;-1.948;2023-01-04T05:24:11;99227.03;;;11.50;100.00
43364;BME280;40636;52.424;-1.948;2023-01-04T05:26:38;99222.66;;;11.49;100.00
43364;BME280;40636;52.424;-1.948;2023-01-04T05:29:05;99230.34;;;11.52;100.00
43364;BME280;40636;52.424;-1.948;2023-01-04T05:31:32;99234.72;;;11.53;100.00
43364;BME280;40636;52.424;-1.948;2023-01-04T05:33:59;99232.53;;;11.50;100.00
43364;BME280;40636;52.424;-1.948;2023-01-04T05:36:26;99241.03;;;11.49;100.00
43364;BME280;40636;52.424;-1.948;2023-01-04T05:38:53;99232.53;;;11.50;100.00
43364;BME280;40636;52.424;-1.948;2023-01-04T05:41:19;99230.63;;;11.46;100.00
43364;BME280;40636;52.424;-1.948;2023-01-04T05:44:04;99239.13;;;11.44;100.00
43364;BME280;40636;52.424;-1.948;2023-01-04T05:46:31;99242.97;;;11.43;100.00
43364;BME280;40636;52.424;-1.948;2023-01-04T05:48:58;99238.28;;;11.43;100.00
43364;BME280;40636;52.424;-1.948;2023-01-04T05:51:24;99238.84;;;11.46;100.00
43364;BME280;40636;52.424;-1.948;2023-01-04T05:53:51;99241.84;;;11.44;100.00
43364;BME280;40636;52.424;-1.948;2023-01-04T05:56:18;99244.06;;;11.42;100.00
43364;BME280;40636;52.424;-1.948;2023-01-04T05:58:44;99253.66;;;11.39;100.00
43364;BME280;40636;52.424;-1.948;2023-01-04T06:01:11;99252.59;;;11.40;100.00
43364;BME280;40636;52.424;-1.948;2023-01-04T06:03:38;99252.59;;;11.40;100.00
43364;BME280;40636;52.424;-1.948;2023-01-04T06:06:05;99266.03;;;11.37;100.00
43364;BME280;40636;52.424;-1.948;2023-01-04T06:08:31;99269.34;;;11.39;100.00
43364;BME280;40636;52.424;-1.948;2023-01-04T06:10:58;99268.78;;;11.42;100.00
43364;BME280;40636;52.424;-1.948;2023-01-04T06:13:24;99274.00;;;11.38;100.00
43364;BME280;40636;52.424;-1.948;2023-01-04T06:15:51;99264.66;;;11.39;100.00
43364;BME280;40636;52.424;-1.948;2023-01-04T06:18:18;99267.41;;;11.34;100.00
43364;BME280;40636;52.424;-1.948;2023-01-04T06:20:45;99266.03;;;11.27;100.00
43364;BME280;40636;52.424;-1.948;2023-01-04T06:23:11;99268.75;;;11.22;100.00
43364;BME280;40636;52.424;-1.948;2023-01-04T06:25:38;99263.25;;;11.22;100.00
43364;BME280;40636;52.424;-1.948;2023-01-04T06:28:05;99261.31;;;11.17;100.00
43364;BME280;40636;52.424;-1.948;2023-01-04T06:30:32;99262.19;;;11.17;100.00
43364;BME280;40636;52.424;-1.948;2023-01-04T06:32:59;99275.63;;;11.19;100.00
43364;BME280;40636;52.424;-1.948;2023-01-04T06:35:26;99264.88;;;11.12;100.00
43364;BME280;40636;52.424;-1.948;2023-01-04T06:37:53;99268.19;;;11.09;100.00
43364;BME280;40636;52.424;-1.948;2023-01-04T06:40:20;99267.38;;;11.09;100.00
43364;BME280;40636;52.424;-1.948;2023-01-04T06:42:47;99274.47;;;11.00;100.00
43364;BME280;40636;52.424;-1.948;2023-01-04T06:45:14;99267.59;;;10.97;100.00
43364;BME280;40636;52.424;-1.948;2023-01-04T06:47:42;99267.59;;;10.97;100.00
43364;BME280;40636;52.424;-1.948;2023-01-04T06:50:09;99273.09;;;10.97;100.00
43364;BME280;40636;52.424;-1.948;2023-01-04T06:52:37;99267.59;;;10.97;100.00
43364;BME280;40636;52.424;-1.948;2023-01-04T06:55:05;99268.16;;;10.99;100.00
43364;BME280;40636;52.424;-1.948;2023-01-04T06:57:35;99271.75;;;11.00;100.00
43364;BME280;40636;52.424;-1.948;2023-01-04T07:00:03;99281.91;;;10.99;100.00
43364;BME280;40636;52.424;-1.948;2023-01-04T07:02:30;99273.66;;;10.99;100.00
43364;BME280;40636;52.424;-1.948;2023-01-04T07:04:57;99273.38;;;11.01;100.00
43364;BME280;40636;52.424;-1.948;2023-01-04T07:07:24;99270.91;;;10.99;100.00
43364;BME280;40636;52.424;-1.948;2023-01-04T07:09:50;99280.22;;;10.98;100.00
43364;BME280;40636;52.424;-1.948;2023-01-04T07:12:17;99277.75;;;10.97;100.00
43364;BME280;40636;52.424;-1.948;2023-01-04T07:14:43;99283.78;;;10.93;100.00
43364;BME280;40636;52.424;-1.948;2023-01-04T07:17:10;99279.09;;;10.94;100.00
43364;BME280;40636;52.424;-1.948;2023-01-04T07:19:37;99292.84;;;10.94;100.00
43364;BME280;40636;52.424;-1.948;2023-01-04T07:22:03;99290.66;;;10.91;100.00
43364;BME280;40636;52.424;-1.948;2023-01-04T07:24:30;99303.28;;;10.92;100.00
43364;BME280;40636;52.424;-1.948;2023-01-04T07:27:00;99279.41;;;10.98;100.00
43364;BME280;40636;52.424;-1.948;2023-01-04T07:29:27;99293.69;;;10.95;100.00
43364;BME280;40636;52.424;-1.948;2023-01-04T07:31:54;99284.59;;;10.94;100.00
43364;BME280;40636;52.424;-1.948;2023-01-04T07:34:23;99306.56;;;10.94;100.00
43364;BME280;40636;52.424;-1.948;2023-01-04T07:36:51;99290.09;;;10.94;100.00
43364;BME280;40636;52.424;-1.948;2023-01-04T07:39:18;99291.19;;;10.93;100.00
43364;BME280;40636;52.424;-1.948;2023-01-04T07:41:46;99290.66;;;10.91;100.00
43364;BME280;40636;52.424;-1.948;2023-01-04T07:44:13;99310.09;;;10.89;100.00
43364;BME280;40636;52.424;-1.948;2023-01-04T07:46:40;99297.78;;;10.92;100.00
43364;BME280;40636;52.424;-1.948;2023-01-04T07:49:15;99294.47;;;10.90;100.00
43364;BME280;40636;52.424;-1.948;2023-01-04T07:51:45;99292.00;;;10.88;100.00
43364;BME280;40636;52.424;-1.948;2023-01-04T07:54:13;99296.13;;;10.91;100.00
43364;BME280;40636;52.424;-1.948;2023-01-04T07:56:39;99309.88;;;10.91;100.00
43364;BME280;40636;52.424;-1.948;2023-01-04T07:59:07;99318.91;;;10.91;100.00
43364;BME280;40636;52.424;-1.948;2023-01-04T08:01:34;99315.91;;;10.93;100.00
43364;BME280;40636;52.424;-1.948;2023-01-04T08:04:08;99327.69;;;10.93;100.00
43364;BME280;40636;52.424;-1.948;2023-01-04T08:06:36;99324.94;;;10.93;100.00
43364;BME280;40636;52.424;-1.948;2023-01-04T08:09:04;99329.63;;;10.93;100.00
43364;BME280;40636;52.424;-1.948;2023-01-04T08:11:30;99322.22;;;10.93;100.00
43364;BME280;40636;52.424;-1.948;2023-01-04T08:13:57;99342.81;;;10.91;100.00
43364;BME280;40636;52.424;-1.948;2023-01-04T08:16:27;99345.25;;;10.87;100.00
43364;BME280;40636;52.424;-1.948;2023-01-04T08:18:55;99340.84;;;10.81;100.00
43364;BME280;40636;52.424;-1.948;2023-01-04T08:21:22;99336.09;;;10.72;100.00
43364;BME280;40636;52.424;-1.948;2023-01-04T08:23:50;99346.81;;;10.68;100.00
43364;BME280;40636;52.424;-1.948;2023-01-04T08:26:18;99343.19;;;10.62;100.00
43364;BME280;40636;52.424;-1.948;2023-01-04T08:28:45;99344.25;;;10.56;100.00
43364;BME280;40636;52.424;-1.948;2023-01-04T08:31:20;99332.72;;;10.54;100.00
43364;BME280;40636;52.424;-1.948;2023-01-04T08:33:49;99346.97;;;10.51;100.00
43364;BME280;40636;52.424;-1.948;2023-01-04T08:36:22;99359.59;;;10.52;100.00
43364;BME280;40636;52.424;-1.948;2023-01-04T08:38:58;99363.44;;;10.51;100.00
43364;BME280;40636;52.424;-1.948;2023-01-04T08:41:32;99369.47;;;10.53;100.00
43364;BME280;40636;52.424;-1.948;2023-01-04T08:44:22;99374.47;;;10.61;100.00
43364;BME280;40636;52.424;-1.948;2023-01-04T08:46:49;99384.34;;;10.62;100.00
43364;BME280;40636;52.424;-1.948;2023-01-04T08:49:17;99379.94;;;10.61;100.00
43364;BME280;40636;52.424;-1.948;2023-01-04T08:51:44;99374.47;;;10.61;100.00
43364;BME280;40636;52.424;-1.948;2023-01-04T08:54:11;99389.56;;;10.59;100.00
43364;BME280;40636;52.424;-1.948;2023-01-04T08:56:38;99395.03;;;10.59;100.00
43364;BME280;40636;52.424;-1.948;2023-01-04T08:59:06;99403.56;;;10.62;100.00
43364;BME280;40636;52.424;-1.948;2023-01-04T09:01:34;99401.66;;;10.63;100.00
43364;BME280;40636;52.424;-1.948;2023-01-04T09:04:01;99406.88;;;10.64;100.00
43364;BME280;40636;52.424;-1.948;2023-01-04T09:06:29;99395.63;;;10.66;100.00
43364;BME280;40636;52.424;-1.948;2023-01-04T09:08:56;99399.75;;;10.63;100.00
43364;BME280;40636;52.424;-1.948;2023-01-04T09:11:24;99402.47;;;10.63;100.00
43364;BME280;40636;52.424;-1.948;2023-01-04T09:14:00;99403.56;;;10.62;100.00
43364;BME280;40636;52.424;-1.948;2023-01-04T09:16:35;99397.50;;;10.60;100.00
43364;BME280;40636;52.424;-1.948;2023-01-04T09:19:05;99401.06;;;10.61;100.00
43364;BME280;40636;52.424;-1.948;2023-01-04T09:21:32;99404.63;;;10.56;100.00
43364;BME280;40636;52.424;-1.948;2023-01-04T09:23:59;99412.34;;;10.59;100.00
43364;BME280;40636;52.424;-1.948;2023-01-04T09:26:25;99405.72;;;10.55;100.00
43364;BME280;40636;52.424;-1.948;2023-01-04T09:28:53;99398.56;;;10.54;100.00
43364;BME280;40636;52.424;-1.948;2023-01-04T09:31:24;99406.81;;;10.54;100.00
43364;BME280;40636;52.424;-1.948;2023-01-04T09:33:51;99414.50;;;10.57;100.00
43364;BME280;40636;52.424;-1.948;2023-01-04T09:36:38;99411.75;;;10.57;100.00
43364;BME280;40636;52.424;-1.948;2023-01-04T09:39:05;99427.69;;;10.60;100.00
43364;BME280;40636;52.424;-1.948;2023-01-04T09:41:39;99426.34;;;10.63;100.00
43364;BME280;40636;52.424;-1.948;2023-01-04T09:46:52;99431.59;;;10.70;100.00
43364;BME280;40636;52.424;-1.948;2023-01-04T09:49:36;99441.50;;;10.76;100.00
43364;BME280;40636;52.424;-1.948;2023-01-04T09:52:14;99431.13;;;10.78;100.00
43364;BME280;40636;52.424;-1.948;2023-01-04T09:54:45;99438.25;;;10.79;100.00
43364;BME280;40636;52.424;-1.948;2023-01-04T09:57:28;99444.59;;;10.84;100.00
43364;BME280;40636;52.424;-1.948;2023-01-04T10:02:44;99449.88;;;10.91;100.00
43364;BME280;40636;52.424;-1.948;2023-01-04T10:05:20;99438.34;;;10.94;100.00
43364;BME280;40636;52.424;-1.948;2023-01-04T10:07:47;99462.78;;;10.96;100.00
43364;BME280;40636;52.424;-1.948;2023-01-04T10:10:15;99456.22;;;10.97;100.00
43364;BME280;40636;52.424;-1.948;2023-01-04T10:13:04;99460.91;;;11.01;100.00
43364;BME280;40636;52.424;-1.948;2023-01-04T10:18:17;99455.97;;;11.03;100.00
43364;BME280;40636;52.424;-1.948;2023-01-04T10:26:50;99463.94;;;11.05;100.00
43364;BME280;40636;52.424;-1.948;2023-01-04T10:32:41;99468.09;;;11.12;100.00
43364;BME280;40636;52.424;-1.948;2023-01-04T10:35:26;99460.94;;;11.11;100.00
43364;BME280;40636;52.424;-1.948;2023-01-04T10:37:58;99469.78;;;11.13;100.00
43364;BME280;40636;52.424;-1.948;2023-01-04T10:40:27;99463.44;;;11.13;100.00
43364;BME280;40636;52.424;-1.948;2023-01-04T10:43:28;99467.88;;;11.19;100.00
43364;BME280;40636;52.424;-1.948;2023-01-04T10:46:27;99466.78;;;11.20;100.00
43364;BME280;40636;52.424;-1.948;2023-01-04T10:51:56;99494.50;;;11.18;100.00
43364;BME280;40636;52.424;-1.948;2023-01-04T10:54:45;99496.69;;;11.16;100.00
43364;BME280;40636;52.424;-1.948;2023-01-04T11:00:03;99506.53;;;11.12;100.00
43364;BME280;40636;52.424;-1.948;2023-01-04T11:10:25;99485.59;;;10.96;100.00
43364;BME280;40636;52.424;-1.948;2023-01-04T11:12:54;99482.31;;;10.99;100.00
43364;BME280;40636;52.424;-1.948;2023-01-04T11:15:21;99483.94;;;10.95;100.00
43364;BME280;40636;52.424;-1.948;2023-01-04T11:17:49;99488.59;;;10.95;100.00
43364;BME280;40636;52.424;-1.948;2023-01-04T11:20:17;99488.06;;;10.98;100.00
43364;BME280;40636;52.424;-1.948;2023-01-04T11:22:51;99493.84;;;11.01;100.00
43364;BME280;40636;52.424;-1.948;2023-01-04T11:25:20;99504.84;;;11.01;100.00
43364;BME280;40636;52.424;-1.948;2023-01-04T11:28:29;99492.50;;;11.04;100.00
43364;BME280;40636;52.424;-1.948;2023-01-04T11:31:02;99496.91;;;11.05;100.00
43364;BME280;40636;52.424;-1.948;2023-01-04T11:34:02;99503.75;;;11.07;100.00
43364;BME280;40636;52.424;-1.948;2023-01-04T11:36:31;99514.78;;;11.12;100.00
43364;BME280;40636;52.424;-1.948;2023-01-04T11:38:59;99489.81;;;11.14;100.00
43364;BME280;40636;52.424;-1.948;2023-01-04T11:41:26;99487.88;;;11.14;100.00
43364;BME280;40636;52.424;-1.948;2023-01-04T11:43:58;99497.25;;;11.18;100.00
43364;BME280;40636;52.424;-1.948;2023-01-04T11:46:26;99487.13;;;11.24;100.00
43364;BME280;40636;52.424;-1.948;2023-01-04T11:48:54;99490.13;;;11.23;100.00
43364;BME280;40636;52.424;-1.948;2023-01-04T11:54:00;99489.38;;;11.32;100.00
43364;BME280;40636;52.424;-1.948;2023-01-04T11:56:28;99478.69;;;11.36;100.00
43364;BME280;40636;52.424;-1.948;2023-01-04T11:59:12;99481.44;;;11.41;100.00
43364;BME280;40636;52.424;-1.948;2023-01-04T12:04:37;99485.28;;;11.40;100.00
43364;BME280;40636;52.424;-1.948;2023-01-04T12:07:32;99474.81;;;11.37;100.00
43364;BME280;40636;52.424;-1.948;2023-01-04T12:10:01;99474.31;;;11.40;100.00
43364;BME280;40636;52.424;-1.948;2023-01-04T12:12:32;99487.25;;;11.45;100.00
43364;BME280;40636;52.424;-1.948;2023-01-04T12:15:03;99475.97;;;11.46;100.00
43364;BME280;40636;52.424;-1.948;2023-01-04T12:17:57;99459.78;;;11.50;100.00
43364;BME280;40636;52.424;-1.948;2023-01-04T12:20:28;99480.66;;;11.51;100.00
43364;BME280;40636;52.424;-1.948;2023-01-04T12:22:55;99484.53;;;11.60;100.00
43364;BME280;40636;52.424;-1.948;2023-01-04T12:25:39;99486.78;;;11.73;100.00
43364;BME280;40636;52.424;-1.948;2023-01-04T12:30:54;99494.88;;;11.90;100.00
43364;BME280;40636;52.424;-1.948;2023-01-04T12:41:12;99497.13;;;12.29;100.00
43364;BME280;40636;52.424;-1.948;2023-01-04T12:43:38;99500.16;;;12.27;100.00
43364;BME280;40636;52.424;-1.948;2023-01-04T12:46:41;99489.41;;;12.26;100.00
43364;BME280;40636;52.424;-1.948;2023-01-04T12:54:58;99485.56;;;12.16;100.00
43364;BME280;40636;52.424;-1.948;2023-01-04T12:57:33;99492.44;;;12.14;100.00
43364;BME280;40636;52.424;-1.948;2023-01-04T13:02:43;99500.38;;;11.95;100.00
43364;BME280;40636;52.424;-1.948;2023-01-04T13:08:09;99494.31;;;11.93;100.00
43364;BME280;40636;52.424;-1.948;2023-01-04T13:10:39;99500.91;;;11.87;100.00
43364;BME280;40636;52.424;-1.948;2023-01-04T13:18:46;99506.91;;;11.84;100.00
43364;BME280;40636;52.424;-1.948;2023-01-04T13:23:48;99511.59;;;11.83;100.00
43364;BME280;40636;52.424;-1.948;2023-01-04T13:26:49;99509.09;;;11.82;100.00
43364;BME280;40636;52.424;-1.948;2023-01-04T13:29:28;99500.84;;;11.82;100.00
43364;BME280;40636;52.424;-1.948;2023-01-04T13:37:27;99493.91;;;11.64;100.00
43364;BME280;40636;52.424;-1.948;2023-01-04T13:40:03;99486.47;;;11.59;100.00
43364;BME280;40636;52.424;-1.948;2023-01-04T13:42:40;99479.03;;;11.55;100.00
43364;BME280;40636;52.424;-1.948;2023-01-04T13:45:17;99483.44;;;11.56;100.00
43364;BME280;40636;52.424;-1.948;2023-01-04T13:47:51;99484.78;;;11.53;100.00
43364;BME280;40636;52.424;-1.948;2023-01-04T13:52:47;99482.63;;;11.65;100.00
43364;BME280;40636;52.424;-1.948;2023-01-04T13:55:33;99478.78;;;11.66;100.00
43364;BME280;40636;52.424;-1.948;2023-01-04T13:58:13;99477.44;;;11.69;100.00
43364;BME280;40636;52.424;-1.948;2023-01-04T14:00:45;99477.66;;;11.62;100.00
43364;BME280;40636;52.424;-1.948;2023-01-04T14:03:31;99474.38;;;11.60;100.00
43364;BME280;40636;52.424;-1.948;2023-01-04T14:09:03;99487.59;;;11.63;100.00
43364;BME280;40636;52.424;-1.948;2023-01-04T14:14:51;99489.75;;;11.56;100.00
43364;BME280;40636;52.424;-1.948;2023-01-04T14:20:00;99490.56;;;11.52;100.00
43364;BME280;40636;52.424;-1.948;2023-01-04T14:22:33;99488.63;;;11.52;100.00
43364;BME280;40636;52.424;-1.948;2023-01-04T14:28:18;99496.88;;;11.52;100.00
43364;BME280;40636;52.424;-1.948;2023-01-04T14:33:40;99517.72;;;11.48;100.00
43364;BME280;40636;52.424;-1.948;2023-01-04T14:38:43;99502.63;;;11.46;100.00
43364;BME280;40636;52.424;-1.948;2023-01-04T14:43:46;99502.88;;;11.44;100.00
43364;BME280;40636;52.424;-1.948;2023-01-04T14:46:13;99513.03;;;11.43;100.00
43364;BME280;40636;52.424;-1.948;2023-01-04T14:48:40;99512.22;;;11.43;100.00
43364;BME280;40636;52.424;-1.948;2023-01-04T14:51:07;99512.22;;;11.43;100.00
43364;BME280;40636;52.424;-1.948;2023-01-04T14:53:34;99529.50;;;11.38;100.00
43364;BME280;40636;52.424;-1.948;2023-01-04T14:56:01;99523.47;;;11.36;100.00
43364;BME280;40636;52.424;-1.948;2023-01-04T14:58:28;99527.56;;;11.34;100.00
43364;BME280;40636;52.424;-1.948;2023-01-04T15:00:54;99530.81;;;11.31;100.00
43364;BME280;40636;52.424;-1.948;2023-01-04T15:03:21;99530.28;;;11.29;100.00
43364;BME280;40636;52.424;-1.948;2023-01-04T15:05:48;99538.19;;;11.25;100.00
43364;BME280;40636;52.424;-1.948;2023-01-04T15:08:15;99536.56;;;11.24;100.00